sensor_id;sensor_type;location;lat;lon;timestamp;P1;durP1;ratioP1;P2;durP2;ratioP2
9972;SDS011;5027;53.560;10.062;2024-01-16T00:00:27;4.47;;;2.33;;
9972;SDS011;5027;53.560;10.062;2024-01-16T00:02:54;6.67;;;2.47;;
9972;SDS011;5027;53.560;10.062;2024-01-16T00:05:20;3.67;;;2.23;;
9972;SDS011;5027;53.560;10.062;2024-01-16T00:07:47;3.83;;;2.07;;
9972;SDS011;5027;53.560;10.062;2024-01-16T00:10:14;3.93;;;2.47;;
9972;SDS011;5027;53.560;10.062;2024-01-16T00:12:41;3.50;;;1.97;;
9972;SDS011;5027;53.560;10.062;2024-01-16T00:15:08;4.83;;;2.47;;
9972;SDS011;5027;53.560;10.062;2024-01-16T00:17:35;5.43;;;2.50;;
9972;SDS011;5027;53.560;10.062;2024-01-16T00:20:02;3.57;;;2.30;;
9972;SDS011;5027;53.560;10.062;2024-01-16T00:22:31;3.67;;;2.23;;
9972;SDS011;5027;53.560;10.062;2024-01-16T00:24:58;3.67;;;2.00;;
9972;SDS011;5027;53.560;10.062;2024-01-16T00:27:25;3.50;;;2.20;;
9972;SDS011;5027;53.560;10.062;2024-01-16T00:29:52;3.37;;;2.13;;
9972;SDS011;5027;53.560;10.062;2024-01-16T00:32:18;2.77;;;1.60;;
9972;SDS011;5027;53.560;10.062;2024-01-16T00:34:45;3.97;;;2.47;;
9972;SDS011;5027;53.560;10.062;2024-01-16T00:37:12;5.03;;;2.57;;
9972;SDS011;5027;53.560;10.062;2024-01-16T00:39:39;6.83;;;3.40;;
9972;SDS011;5027;53.560;10.062;2024-01-16T00:42:06;4.87;;;2.70;;
9972;SDS011;5027;53.560;10.062;2024-01-16T00:44:32;3.93;;;2.83;;
9972;SDS011;5027;53.560;10.062;2024-01-16T00:46:59;3.80;;;2.60;;
9972;SDS011;5027;53.560;10.062;2024-01-16T00:49:28;5.10;;;3.13;;
9972;SDS011;5027;53.560;10.062;2024-01-16T00:51:55;2.67;;;2.23;;
9972;SDS011;5027;53.560;10.062;2024-01-16T00:54:22;3.33;;;2.77;;
9972;SDS011;5027;53.560;10.062;2024-01-16T00:56:49;3.40;;;2.20;;
9972;SDS011;5027;53.560;10.062;2024-01-16T00:59:17;5.10;;;2.80;;
9972;SDS011;5027;53.560;10.062;2024-01-16T01:01:43;3.93;;;2.73;;
9972;SDS011;5027;53.560;10.062;2024-01-16T01:04:10;3.43;;;2.67;;
9972;SDS011;5027;53.560;10.062;2024-01-16T01:06:37;4.20;;;2.60;;
9972;SDS011;5027;53.560;10.062;2024-01-16T01:09:04;6.70;;;2.73;;
9972;SDS011;5027;53.560;10.062;2024-01-16T01:11:30;4.37;;;2.40;;
9972;SDS011;5027;53.560;10.062;2024-01-16T01:13:57;6.17;;;2.50;;
9972;SDS011;5027;53.560;10.062;2024-01-16T01:16:24;3.20;;;2.50;;
9972;SDS011;5027;53.560;10.062;2024-01-16T01:18:50;3.83;;;2.33;;
9972;SDS011;5027;53.560;10.062;2024-01-16T01:21:17;3.93;;;2.77;;
9972;SDS011;5027;53.560;10.062;2024-01-16T01:23:44;3.37;;;3.07;;
9972;SDS011;5027;53.560;10.062;2024-01-16T01:26:11;3.80;;;2.87;;
9972;SDS011;5027;53.560;10.062;2024-01-16T01:28:40;3.20;;;2.50;;
9972;SDS011;5027;53.560;10.062;2024-01-16T01:31:11;2.70;;;2.50;;
9972;SDS011;5027;53.560;10.062;2024-01-16T01:33:39;5.80;;;2.77;;
9972;SDS011;5027;53.560;10.062;2024-01-16T01:36:06;3.40;;;2.50;;
9972;SDS011;5027;53.560;10.062;2024-01-16T01:38:32;4.33;;;2.40;;
9972;SDS011;5027;53.560;10.062;2024-01-16T01:40:59;4.73;;;2.60;;
9972;SDS011;5027;53.560;10.062;2024-01-16T01:43:26;3.43;;;2.70;;
9972;SDS011;5027;53.560;10.062;2024-01-16T01:46:13;4.53;;;2.90;;
9972;SDS011;5027;53.560;10.062;2024-01-16T01:48:42;6.17;;;3.30;;
9972;SDS011;5027;53.560;10.062;2024-01-16T01:51:11;3.43;;;2.47;;
9972;SDS011;5027;53.560;10.062;2024-01-16T01:53:40;5.00;;;3.20;;
9972;SDS011;5027;53.560;10.062;2024-01-16T01:56:09;4.23;;;2.63;;
9972;SDS011;5027;53.560;10.062;2024-01-16T01:58:39;4.73;;;2.90;;
9972;SDS011;5027;53.560;10.062;2024-01-16T02:01:09;5.53;;;3.37;;
9972;SDS011;5027;53.560;10.062;2024-01-16T02:03:41;4.77;;;3.13;;
9972;SDS011;5027;53.560;10.062;2024-01-16T02:06:10;6.07;;;3.10;;
9972;SDS011;5027;53.560;10.062;2024-01-16T02:08:42;5.23;;;3.40;;
9972;SDS011;5027;53.560;10.062;2024-01-16T02:11:09;3.60;;;2.73;;
9972;SDS011;5027;53.560;10.062;2024-01-16T02:13:36;4.23;;;3.00;;
9972;SDS011;5027;53.560;10.062;2024-01-16T02:16:03;4.23;;;3.00;;
9972;SDS011;5027;53.560;10.062;2024-01-16T02:18:32;3.63;;;2.97;;
9972;SDS011;5027;53.560;10.062;2024-01-16T02:21:02;4.53;;;3.10;;
9972;SDS011;5027;53.560;10.062;2024-01-16T02:23:32;5.10;;;3.10;;
9972;SDS011;5027;53.560;10.062;2024-01-16T02:26:00;3.50;;;2.80;;
9972;SDS011;5027;53.560;10.062;2024-01-16T02:28:29;3.50;;;3.10;;
9972;SDS011;5027;53.560;10.062;2024-01-16T02:30:55;7.33;;;3.03;;
9972;SDS011;5027;53.560;10.062;2024-01-16T02:33:22;4.93;;;3.13;;
9972;SDS011;5027;53.560;10.062;2024-01-16T02:35:49;4.20;;;3.10;;
9972;SDS011;5027;53.560;10.062;2024-01-16T02:38:16;5.40;;;3.40;;
9972;SDS011;5027;53.560;10.062;2024-01-16T02:40:43;4.50;;;3.10;;
9972;SDS011;5027;53.560;10.062;2024-01-16T02:43:10;5.30;;;3.27;;
9972;SDS011;5027;53.560;10.062;2024-01-16T02:45:36;5.13;;;2.93;;
9972;SDS011;5027;53.560;10.062;2024-01-16T02:48:03;3.47;;;3.10;;
9972;SDS011;5027;53.560;10.062;2024-01-16T02:50:30;5.33;;;3.20;;
9972;SDS011;5027;53.560;10.062;2024-01-16T02:52:57;6.87;;;3.87;;
9972;SDS011;5027;53.560;10.062;2024-01-16T02:55:24;6.53;;;4.30;;
9972;SDS011;5027;53.560;10.062;2024-01-16T02:57:51;5.33;;;4.83;;
9972;SDS011;5027;53.560;10.062;2024-01-16T03:00:17;6.13;;;4.97;;
9972;SDS011;5027;53.560;10.062;2024-01-16T03:02:44;7.50;;;6.10;;
9972;SDS011;5027;53.560;10.062;2024-01-16T03:05:11;6.50;;;5.57;;
9972;SDS011;5027;53.560;10.062;2024-01-16T03:07:38;8.03;;;5.90;;
9972;SDS011;5027;53.560;10.062;2024-01-16T03:10:05;9.37;;;6.70;;
9972;SDS011;5027;53.560;10.062;2024-01-16T03:12:33;7.33;;;6.63;;
9972;SDS011;5027;53.560;10.062;2024-01-16T03:14:59;7.90;;;6.90;;
9972;SDS011;5027;53.560;10.062;2024-01-16T03:17:26;7.90;;;7.20;;
9972;SDS011;5027;53.560;10.062;2024-01-16T03:19:53;8.23;;;7.43;;
9972;SDS011;5027;53.560;10.062;2024-01-16T03:22:19;8.37;;;6.77;;
9972;SDS011;5027;53.560;10.062;2024-01-16T03:24:46;9.47;;;6.30;;
9972;SDS011;5027;53.560;10.062;2024-01-16T03:27:13;6.93;;;6.23;;
9972;SDS011;5027;53.560;10.062;2024-01-16T03:29:40;6.50;;;5.90;;
9972;SDS011;5027;53.560;10.062;2024-01-16T03:32:06;6.30;;;5.80;;
9972;SDS011;5027;53.560;10.062;2024-01-16T03:34:33;6.30;;;5.70;;
9972;SDS011;5027;53.560;10.062;2024-01-16T03:37:00;7.10;;;5.63;;
9972;SDS011;5027;53.560;10.062;2024-01-16T03:39:27;6.53;;;5.27;;
9972;SDS011;5027;53.560;10.062;2024-01-16T03:41:54;7.07;;;5.60;;
9972;SDS011;5027;53.560;10.062;2024-01-16T03:44:21;10.37;;;6.33;;
9972;SDS011;5027;53.560;10.062;2024-01-16T03:46:47;7.63;;;5.60;;
9972;SDS011;5027;53.560;10.062;2024-01-16T03:49:14;6.70;;;5.70;;
9972;SDS011;5027;53.560;10.062;2024-01-16T03:51:41;10.13;;;5.67;;
9972;SDS011;5027;53.560;10.062;2024-01-16T03:54:12;6.47;;;5.57;;
9972;SDS011;5027;53.560;10.062;2024-01-16T03:56:39;6.17;;;5.47;;
9972;SDS011;5027;53.560;10.062;2024-01-16T03:59:06;6.67;;;5.57;;
9972;SDS011;5027;53.560;10.062;2024-01-16T04:01:33;8.50;;;5.50;;
9972;SDS011;5027;53.560;10.062;2024-01-16T04:04:03;7.33;;;5.77;;
9972;SDS011;5027;53.560;10.062;2024-01-16T04:06:32;6.30;;;5.60;;
9972;SDS011;5027;53.560;10.062;2024-01-16T04:08:59;6.93;;;5.63;;
9972;SDS011;5027;53.560;10.062;2024-01-16T04:11:27;9.67;;;5.97;;
9972;SDS011;5027;53.560;10.062;2024-01-16T04:13:53;6.40;;;5.27;;
9972;SDS011;5027;53.560;10.062;2024-01-16T04:16:20;7.53;;;5.87;;
9972;SDS011;5027;53.560;10.062;2024-01-16T04:18:47;10.23;;;6.23;;
9972;SDS011;5027;53.560;10.062;2024-01-16T04:21:14;7.20;;;6.30;;
9972;SDS011;5027;53.560;10.062;2024-01-16T04:23:45;7.77;;;6.47;;
9972;SDS011;5027;53.560;10.062;2024-01-16T04:26:12;9.33;;;6.67;;
9972;SDS011;5027;53.560;10.062;2024-01-16T04:28:39;8.23;;;6.97;;
9972;SDS011;5027;53.560;10.062;2024-01-16T04:31:06;10.33;;;6.70;;
9972;SDS011;5027;53.560;10.062;2024-01-16T04:33:33;8.83;;;6.37;;
9972;SDS011;5027;53.560;10.062;2024-01-16T04:36:00;8.73;;;6.20;;
9972;SDS011;5027;53.560;10.062;2024-01-16T04:38:26;7.43;;;6.73;;
9972;SDS011;5027;53.560;10.062;2024-01-16T04:40:53;13.67;;;7.93;;
9972;SDS011;5027;53.560;10.062;2024-01-16T04:43:20;6.73;;;5.23;;
9972;SDS011;5027;53.560;10.062;2024-01-16T04:45:46;8.03;;;5.73;;
9972;SDS011;5027;53.560;10.062;2024-01-16T04:48:13;8.63;;;5.47;;
9972;SDS011;5027;53.560;10.062;2024-01-16T04:50:40;7.53;;;5.17;;
9972;SDS011;5027;53.560;10.062;2024-01-16T04:53:07;7.13;;;5.37;;
9972;SDS011;5027;53.560;10.062;2024-01-16T04:55:34;5.67;;;5.10;;
9972;SDS011;5027;53.560;10.062;2024-01-16T04:58:01;5.07;;;4.40;;
9972;SDS011;5027;53.560;10.062;2024-01-16T05:00:27;5.80;;;4.70;;
9972;SDS011;5027;53.560;10.062;2024-01-16T05:02:54;5.13;;;4.63;;
9972;SDS011;5027;53.560;10.062;2024-01-16T05:05:21;8.43;;;4.83;;
9972;SDS011;5027;53.560;10.062;2024-01-16T05:07:50;7.20;;;5.30;;
9972;SDS011;5027;53.560;10.062;2024-01-16T05:10:17;6.43;;;4.53;;
9972;SDS011;5027;53.560;10.062;2024-01-16T05:12:44;4.87;;;4.10;;
9972;SDS011;5027;53.560;10.062;2024-01-16T05:15:10;4.60;;;4.10;;
9972;SDS011;5027;53.560;10.062;2024-01-16T05:17:37;6.93;;;5.10;;
9972;SDS011;5027;53.560;10.062;2024-01-16T05:20:05;5.97;;;5.30;;
9972;SDS011;5027;53.560;10.062;2024-01-16T05:22:32;6.77;;;5.03;;
9972;SDS011;5027;53.560;10.062;2024-01-16T05:24:59;6.77;;;5.13;;
9972;SDS011;5027;53.560;10.062;2024-01-16T05:27:27;5.03;;;4.40;;
9972;SDS011;5027;53.560;10.062;2024-01-16T05:29:53;4.87;;;4.10;;
9972;SDS011;5027;53.560;10.062;2024-01-16T05:32:20;5.23;;;4.10;;
9972;SDS011;5027;53.560;10.062;2024-01-16T05:34:47;4.70;;;4.00;;
9972;SDS011;5027;53.560;10.062;2024-01-16T05:37:14;4.67;;;3.83;;
9972;SDS011;5027;53.560;10.062;2024-01-16T05:39:41;4.93;;;3.67;;
9972;SDS011;5027;53.560;10.062;2024-01-16T05:42:07;5.37;;;3.90;;
9972;SDS011;5027;53.560;10.062;2024-01-16T05:44:34;4.37;;;3.33;;
9972;SDS011;5027;53.560;10.062;2024-01-16T05:47:01;3.93;;;3.53;;
9972;SDS011;5027;53.560;10.062;2024-01-16T05:49:28;5.63;;;4.00;;
9972;SDS011;5027;53.560;10.062;2024-01-16T05:51:55;4.80;;;3.67;;
9972;SDS011;5027;53.560;10.062;2024-01-16T05:54:22;8.43;;;3.60;;
9972;SDS011;5027;53.560;10.062;2024-01-16T05:56:49;4.13;;;3.07;;
9972;SDS011;5027;53.560;10.062;2024-01-16T05:59:16;4.33;;;3.23;;
9972;SDS011;5027;53.560;10.062;2024-01-16T06:01:43;4.90;;;2.60;;
9972;SDS011;5027;53.560;10.062;2024-01-16T06:04:09;5.27;;;3.20;;
9972;SDS011;5027;53.560;10.062;2024-01-16T06:06:40;5.07;;;2.50;;
9972;SDS011;5027;53.560;10.062;2024-01-16T06:09:11;5.10;;;2.40;;
9972;SDS011;5027;53.560;10.062;2024-01-16T06:11:40;3.37;;;2.10;;
9972;SDS011;5027;53.560;10.062;2024-01-16T06:14:07;2.73;;;1.87;;
9972;SDS011;5027;53.560;10.062;2024-01-16T06:16:35;5.30;;;2.03;;
9972;SDS011;5027;53.560;10.062;2024-01-16T06:19:02;2.53;;;1.70;;
9972;SDS011;5027;53.560;10.062;2024-01-16T06:21:29;10.43;;;2.20;;
9972;SDS011;5027;53.560;10.062;2024-01-16T06:23:55;5.57;;;1.80;;
9972;SDS011;5027;53.560;10.062;2024-01-16T06:26:22;3.10;;;1.60;;
9972;SDS011;5027;53.560;10.062;2024-01-16T06:28:49;6.07;;;2.10;;
9972;SDS011;5027;53.560;10.062;2024-01-16T06:31:16;4.03;;;1.50;;
9972;SDS011;5027;53.560;10.062;2024-01-16T06:33:44;4.07;;;1.70;;
9972;SDS011;5027;53.560;10.062;2024-01-16T06:36:11;6.07;;;1.87;;
9972;SDS011;5027;53.560;10.062;2024-01-16T06:38:38;4.07;;;1.80;;
9972;SDS011;5027;53.560;10.062;2024-01-16T06:41:06;5.43;;;2.30;;
9972;SDS011;5027;53.560;10.062;2024-01-16T06:43:33;5.03;;;2.17;;
9972;SDS011;5027;53.560;10.062;2024-01-16T06:46:00;4.67;;;2.10;;
9972;SDS011;5027;53.560;10.062;2024-01-16T06:48:26;5.83;;;2.73;;
9972;SDS011;5027;53.560;10.062;2024-01-16T06:50:53;6.00;;;2.50;;
9972;SDS011;5027;53.560;10.062;2024-01-16T06:53:20;4.20;;;2.30;;
9972;SDS011;5027;53.560;10.062;2024-01-16T06:55:47;5.03;;;2.27;;
9972;SDS011;5027;53.560;10.062;2024-01-16T06:58:15;7.87;;;2.43;;
9972;SDS011;5027;53.560;10.062;2024-01-16T07:00:41;5.53;;;2.53;;
9972;SDS011;5027;53.560;10.062;2024-01-16T07:03:09;5.13;;;2.40;;
9972;SDS011;5027;53.560;10.062;2024-01-16T07:05:36;9.77;;;2.80;;
9972;SDS011;5027;53.560;10.062;2024-01-16T07:08:02;4.23;;;1.90;;
9972;SDS011;5027;53.560;10.062;2024-01-16T07:10:29;7.77;;;2.87;;
9972;SDS011;5027;53.560;10.062;2024-01-16T07:12:57;6.30;;;2.57;;
9972;SDS011;5027;53.560;10.062;2024-01-16T07:15:24;7.87;;;2.77;;
9972;SDS011;5027;53.560;10.062;2024-01-16T07:17:51;5.00;;;2.27;;
9972;SDS011;5027;53.560;10.062;2024-01-16T07:20:18;6.60;;;2.67;;
9972;SDS011;5027;53.560;10.062;2024-01-16T07:22:45;5.40;;;2.60;;
9972;SDS011;5027;53.560;10.062;2024-01-16T07:25:11;5.17;;;2.43;;
9972;SDS011;5027;53.560;10.062;2024-01-16T07:27:38;7.03;;;2.73;;
9972;SDS011;5027;53.560;10.062;2024-01-16T07:30:05;6.60;;;2.63;;
9972;SDS011;5027;53.560;10.062;2024-01-16T07:32:33;6.67;;;2.60;;
9972;SDS011;5027;53.560;10.062;2024-01-16T07:35:01;6.27;;;2.63;;
9972;SDS011;5027;53.560;10.062;2024-01-16T07:37:29;7.77;;;2.93;;
9972;SDS011;5027;53.560;10.062;2024-01-16T07:39:56;8.30;;;2.77;;
9972;SDS011;5027;53.560;10.062;2024-01-16T07:42:23;5.57;;;2.83;;
9972;SDS011;5027;53.560;10.062;2024-01-16T07:44:49;7.63;;;2.80;;
9972;SDS011;5027;53.560;10.062;2024-01-16T07:47:17;5.37;;;2.80;;
9972;SDS011;5027;53.560;10.062;2024-01-16T07:49:44;4.67;;;2.70;;
9972;SDS011;5027;53.560;10.062;2024-01-16T07:52:11;5.07;;;2.90;;
9972;SDS011;5027;53.560;10.062;2024-01-16T07:54:38;5.07;;;2.67;;
9972;SDS011;5027;53.560;10.062;2024-01-16T07:57:05;4.87;;;2.90;;
9972;SDS011;5027;53.560;10.062;2024-01-16T07:59:32;6.43;;;3.27;;
9972;SDS011;5027;53.560;10.062;2024-01-16T08:01:59;4.93;;;3.00;;
9972;SDS011;5027;53.560;10.062;2024-01-16T08:04:26;5.70;;;3.20;;
9972;SDS011;5027;53.560;10.062;2024-01-16T08:06:52;8.80;;;3.87;;
9972;SDS011;5027;53.560;10.062;2024-01-16T08:09:19;5.10;;;3.47;;
9972;SDS011;5027;53.560;10.062;2024-01-16T08:11:46;7.90;;;3.90;;
9972;SDS011;5027;53.560;10.062;2024-01-16T08:14:13;5.73;;;3.53;;
9972;SDS011;5027;53.560;10.062;2024-01-16T08:16:40;6.93;;;3.40;;
9972;SDS011;5027;53.560;10.062;2024-01-16T08:19:07;8.87;;;4.00;;
9972;SDS011;5027;53.560;10.062;2024-01-16T08:21:34;10.70;;;3.73;;
9972;SDS011;5027;53.560;10.062;2024-01-16T08:24:00;6.67;;;3.40;;
9972;SDS011;5027;53.560;10.062;2024-01-16T08:26:27;7.53;;;3.47;;
9972;SDS011;5027;53.560;10.062;2024-01-16T08:28:54;8.47;;;3.70;;
9972;SDS011;5027;53.560;10.062;2024-01-16T08:31:21;4.40;;;2.53;;
9972;SDS011;5027;53.560;10.062;2024-01-16T08:33:48;8.60;;;3.47;;
9972;SDS011;5027;53.560;10.062;2024-01-16T08:36:19;7.87;;;3.10;;
9972;SDS011;5027;53.560;10.062;2024-01-16T08:38:46;9.50;;;3.40;;
9972;SDS011;5027;53.560;10.062;2024-01-16T08:41:12;8.33;;;3.03;;
9972;SDS011;5027;53.560;10.062;2024-01-16T08:43:39;6.27;;;3.40;;
9972;SDS011;5027;53.560;10.062;2024-01-16T08:46:06;7.53;;;3.13;;
9972;SDS011;5027;53.560;10.062;2024-01-16T08:48:33;7.30;;;3.10;;
9972;SDS011;5027;53.560;10.062;2024-01-16T08:51:00;7.20;;;3.30;;
9972;SDS011;5027;53.560;10.062;2024-01-16T08:53:30;8.60;;;3.67;;
9972;SDS011;5027;53.560;10.062;2024-01-16T08:55:57;8.13;;;3.83;;
9972;SDS011;5027;53.560;10.062;2024-01-16T08:58:24;5.73;;;3.43;;
9972;SDS011;5027;53.560;10.062;2024-01-16T09:00:51;7.17;;;3.97;;
9972;SDS011;5027;53.560;10.062;2024-01-16T09:03:17;9.63;;;4.10;;
9972;SDS011;5027;53.560;10.062;2024-01-16T09:05:44;12.43;;;5.03;;
9972;SDS011;5027;53.560;10.062;2024-01-16T09:08:11;11.80;;;5.50;;
9972;SDS011;5027;53.560;10.062;2024-01-16T09:10:39;10.03;;;4.77;;
9972;SDS011;5027;53.560;10.062;2024-01-16T09:13:06;8.53;;;5.53;;
9972;SDS011;5027;53.560;10.062;2024-01-16T09:15:33;10.40;;;4.80;;
9972;SDS011;5027;53.560;10.062;2024-01-16T09:18:00;15.47;;;4.23;;
9972;SDS011;5027;53.560;10.062;2024-01-16T09:20:28;9.63;;;4.27;;
9972;SDS011;5027;53.560;10.062;2024-01-16T09:22:55;9.13;;;4.13;;
9972;SDS011;5027;53.560;10.062;2024-01-16T09:25:21;10.30;;;3.50;;
9972;SDS011;5027;53.560;10.062;2024-01-16T09:27:51;7.73;;;3.43;;
9972;SDS011;5027;53.560;10.062;2024-01-16T09:30:17;8.90;;;3.83;;
9972;SDS011;5027;53.560;10.062;2024-01-16T09:32:45;13.03;;;4.27;;
9972;SDS011;5027;53.560;10.062;2024-01-16T09:35:12;9.33;;;3.20;;
9972;SDS011;5027;53.560;10.062;2024-01-16T09:37:38;11.40;;;3.87;;
9972;SDS011;5027;53.560;10.062;2024-01-16T09:40:06;9.23;;;3.40;;
9972;SDS011;5027;53.560;10.062;2024-01-16T09:42:33;7.60;;;3.37;;
9972;SDS011;5027;53.560;10.062;2024-01-16T09:45:00;11.03;;;3.30;;
9972;SDS011;5027;53.560;10.062;2024-01-16T09:47:30;12.17;;;3.33;;
9972;SDS011;5027;53.560;10.062;2024-01-16T09:49:59;7.47;;;3.30;;
9972;SDS011;5027;53.560;10.062;2024-01-16T09:52:28;8.23;;;3.37;;
9972;SDS011;5027;53.560;10.062;2024-01-16T09:54:55;6.53;;;3.03;;
9972;SDS011;5027;53.560;10.062;2024-01-16T09:57:25;5.73;;;2.30;;
9972;SDS011;5027;53.560;10.062;2024-01-16T09:59:52;9.13;;;2.97;;
9972;SDS011;5027;53.560;10.062;2024-01-16T10:02:19;5.00;;;2.47;;
9972;SDS011;5027;53.560;10.062;2024-01-16T10:04:49;5.10;;;2.03;;
9972;SDS011;5027;53.560;10.062;2024-01-16T10:07:16;8.83;;;2.67;;
9972;SDS011;5027;53.560;10.062;2024-01-16T10:09:44;5.50;;;2.30;;
9972;SDS011;5027;53.560;10.062;2024-01-16T10:12:11;5.83;;;2.40;;
9972;SDS011;5027;53.560;10.062;2024-01-16T10:14:38;7.50;;;2.63;;
9972;SDS011;5027;53.560;10.062;2024-01-16T10:17:06;5.07;;;2.47;;
9972;SDS011;5027;53.560;10.062;2024-01-16T10:19:50;8.33;;;2.17;;
9972;SDS011;5027;53.560;10.062;2024-01-16T10:22:23;6.17;;;2.00;;
9972;SDS011;5027;53.560;10.062;2024-01-16T10:25:05;6.93;;;2.30;;
9972;SDS011;5027;53.560;10.062;2024-01-16T10:27:32;7.87;;;2.40;;
9972;SDS011;5027;53.560;10.062;2024-01-16T10:30:00;4.67;;;2.13;;
9972;SDS011;5027;53.560;10.062;2024-01-16T10:32:27;5.97;;;2.20;;
9972;SDS011;5027;53.560;10.062;2024-01-16T10:35:02;8.47;;;1.90;;
9972;SDS011;5027;53.560;10.062;2024-01-16T10:37:31;4.90;;;2.13;;
9972;SDS011;5027;53.560;10.062;2024-01-16T10:40:07;7.53;;;2.30;;
9972;SDS011;5027;53.560;10.062;2024-01-16T10:42:34;6.73;;;2.33;;
9972;SDS011;5027;53.560;10.062;2024-01-16T10:45:01;6.37;;;2.07;;
9972;SDS011;5027;53.560;10.062;2024-01-16T10:47:28;6.23;;;2.13;;
9972;SDS011;5027;53.560;10.062;2024-01-16T10:49:55;11.13;;;2.73;;
9972;SDS011;5027;53.560;10.062;2024-01-16T10:52:23;6.37;;;2.10;;
9972;SDS011;5027;53.560;10.062;2024-01-16T10:54:54;6.37;;;2.20;;
9972;SDS011;5027;53.560;10.062;2024-01-16T10:57:24;5.27;;;2.30;;
9972;SDS011;5027;53.560;10.062;2024-01-16T11:00:25;6.87;;;2.07;;
9972;SDS011;5027;53.560;10.062;2024-01-16T11:02:54;6.73;;;2.23;;
9972;SDS011;5027;53.560;10.062;2024-01-16T11:05:27;5.87;;;1.83;;
9972;SDS011;5027;53.560;10.062;2024-01-16T11:07:58;8.17;;;2.53;;
9972;SDS011;5027;53.560;10.062;2024-01-16T11:10:25;6.50;;;2.20;;
9972;SDS011;5027;53.560;10.062;2024-01-16T11:12:53;6.47;;;2.30;;
9972;SDS011;5027;53.560;10.062;2024-01-16T11:15:21;5.43;;;2.00;;
9972;SDS011;5027;53.560;10.062;2024-01-16T11:17:50;4.77;;;2.37;;
9972;SDS011;5027;53.560;10.062;2024-01-16T11:20:17;10.00;;;2.10;;
9972;SDS011;5027;53.560;10.062;2024-01-16T11:23:05;6.77;;;1.97;;
9972;SDS011;5027;53.560;10.062;2024-01-16T11:25:32;7.77;;;2.10;;
9972;SDS011;5027;53.560;10.062;2024-01-16T11:28:07;8.07;;;2.23;;
9972;SDS011;5027;53.560;10.062;2024-01-16T11:30:36;7.97;;;2.20;;
9972;SDS011;5027;53.560;10.062;2024-01-16T11:33:03;6.67;;;2.60;;
9972;SDS011;5027;53.560;10.062;2024-01-16T11:35:37;6.07;;;2.17;;
9972;SDS011;5027;53.560;10.062;2024-01-16T11:38:11;6.90;;;2.57;;
9972;SDS011;5027;53.560;10.062;2024-01-16T11:40:46;8.13;;;2.07;;
9972;SDS011;5027;53.560;10.062;2024-01-16T11:46:00;6.10;;;2.13;;
9972;SDS011;5027;53.560;10.062;2024-01-16T11:48:27;10.13;;;2.40;;
9972;SDS011;5027;53.560;10.062;2024-01-16T11:50:54;7.87;;;2.43;;
9972;SDS011;5027;53.560;10.062;2024-01-16T11:53:31;7.60;;;2.73;;
9972;SDS011;5027;53.560;10.062;2024-01-16T12:01:40;5.77;;;2.13;;
9972;SDS011;5027;53.560;10.062;2024-01-16T12:04:10;8.07;;;2.30;;
9972;SDS011;5027;53.560;10.062;2024-01-16T12:06:37;3.37;;;1.90;;
9972;SDS011;5027;53.560;10.062;2024-01-16T12:09:11;5.63;;;2.40;;
9972;SDS011;5027;53.560;10.062;2024-01-16T12:11:39;10.00;;;2.40;;
9972;SDS011;5027;53.560;10.062;2024-01-16T12:14:09;7.47;;;2.37;;
9972;SDS011;5027;53.560;10.062;2024-01-16T12:16:36;8.00;;;2.60;;
9972;SDS011;5027;53.560;10.062;2024-01-16T12:19:06;10.43;;;2.40;;
9972;SDS011;5027;53.560;10.062;2024-01-16T12:21:41;7.00;;;2.30;;
9972;SDS011;5027;53.560;10.062;2024-01-16T12:24:10;6.90;;;2.10;;
9972;SDS011;5027;53.560;10.062;2024-01-16T12:26:43;7.97;;;2.80;;
9972;SDS011;5027;53.560;10.062;2024-01-16T12:29:10;8.20;;;2.53;;
9972;SDS011;5027;53.560;10.062;2024-01-16T12:31:37;10.50;;;2.50;;
9972;SDS011;5027;53.560;10.062;2024-01-16T12:34:04;6.37;;;2.23;;
9972;SDS011;5027;53.560;10.062;2024-01-16T12:36:34;10.00;;;3.00;;
9972;SDS011;5027;53.560;10.062;2024-01-16T12:39:01;5.60;;;2.07;;
9972;SDS011;5027;53.560;10.062;2024-01-16T12:41:30;5.77;;;2.00;;
9972;SDS011;5027;53.560;10.062;2024-01-16T12:44:08;7.83;;;2.40;;
9972;SDS011;5027;53.560;10.062;2024-01-16T12:46:42;9.17;;;2.77;;
9972;SDS011;5027;53.560;10.062;2024-01-16T12:49:11;8.50;;;2.30;;
9972;SDS011;5027;53.560;10.062;2024-01-16T12:51:38;7.33;;;2.70;;
9972;SDS011;5027;53.560;10.062;2024-01-16T12:54:15;8.53;;;2.60;;
9972;SDS011;5027;53.560;10.062;2024-01-16T12:56:44;10.40;;;2.77;;
9972;SDS011;5027;53.560;10.062;2024-01-16T12:59:11;7.67;;;2.43;;
9972;SDS011;5027;53.560;10.062;2024-01-16T13:01:45;6.80;;;2.13;;
9972;SDS011;5027;53.560;10.062;2024-01-16T13:04:13;7.37;;;2.20;;
9972;SDS011;5027;53.560;10.062;2024-01-16T13:06:45;4.73;;;1.90;;
9972;SDS011;5027;53.560;10.062;2024-01-16T13:09:14;6.00;;;2.23;;
9972;SDS011;5027;53.560;10.062;2024-01-16T13:11:50;5.57;;;1.93;;
9972;SDS011;5027;53.560;10.062;2024-01-16T13:14:19;7.97;;;2.53;;
9972;SDS011;5027;53.560;10.062;2024-01-16T13:16:48;7.10;;;2.00;;
9972;SDS011;5027;53.560;10.062;2024-01-16T13:19:16;4.00;;;1.60;;
9972;SDS011;5027;53.560;10.062;2024-01-16T13:21:50;5.53;;;2.10;;
9972;SDS011;5027;53.560;10.062;2024-01-16T13:24:17;6.87;;;2.10;;
9972;SDS011;5027;53.560;10.062;2024-01-16T13:26:47;5.83;;;2.07;;
9972;SDS011;5027;53.560;10.062;2024-01-16T13:29:14;6.00;;;2.13;;
9972;SDS011;5027;53.560;10.062;2024-01-16T13:31:42;4.77;;;2.03;;
9972;SDS011;5027;53.560;10.062;2024-01-16T13:34:09;7.10;;;2.47;;
9972;SDS011;5027;53.560;10.062;2024-01-16T13:36:37;11.17;;;3.07;;
9972;SDS011;5027;53.560;10.062;2024-01-16T13:39:23;8.43;;;2.87;;
9972;SDS011;5027;53.560;10.062;2024-01-16T13:41:51;6.83;;;2.00;;
9972;SDS011;5027;53.560;10.062;2024-01-16T13:44:18;4.27;;;2.17;;
9972;SDS011;5027;53.560;10.062;2024-01-16T13:46:45;6.17;;;2.30;;
9972;SDS011;5027;53.560;10.062;2024-01-16T13:49:31;8.70;;;2.47;;
9972;SDS011;5027;53.560;10.062;2024-01-16T13:52:03;6.43;;;2.73;;
9972;SDS011;5027;53.560;10.062;2024-01-16T13:54:30;6.93;;;2.40;;
9972;SDS011;5027;53.560;10.062;2024-01-16T13:56:57;6.20;;;3.00;;
9972;SDS011;5027;53.560;10.062;2024-01-16T13:59:33;7.27;;;2.80;;
9972;SDS011;5027;53.560;10.062;2024-01-16T14:02:02;7.90;;;3.17;;
9972;SDS011;5027;53.560;10.062;2024-01-16T14:04:30;5.37;;;2.93;;
9972;SDS011;5027;53.560;10.062;2024-01-16T14:06:57;5.83;;;3.57;;
9972;SDS011;5027;53.560;10.062;2024-01-16T14:09:38;6.07;;;3.27;;
9972;SDS011;5027;53.560;10.062;2024-01-16T14:12:09;5.83;;;3.33;;
9972;SDS011;5027;53.560;10.062;2024-01-16T14:14:39;11.10;;;3.80;;
9972;SDS011;5027;53.560;10.062;2024-01-16T14:17:07;9.33;;;4.40;;
9972;SDS011;5027;53.560;10.062;2024-01-16T14:19:34;6.73;;;3.87;;
9972;SDS011;5027;53.560;10.062;2024-01-16T14:22:04;6.73;;;4.00;;
9972;SDS011;5027;53.560;10.062;2024-01-16T14:24:34;8.03;;;4.30;;
9972;SDS011;5027;53.560;10.062;2024-01-16T14:27:04;7.97;;;4.30;;
9972;SDS011;5027;53.560;10.062;2024-01-16T14:29:33;8.30;;;4.20;;
9972;SDS011;5027;53.560;10.062;2024-01-16T14:32:03;7.63;;;4.37;;
9972;SDS011;5027;53.560;10.062;2024-01-16T14:34:30;8.53;;;4.00;;
9972;SDS011;5027;53.560;10.062;2024-01-16T14:36:59;9.47;;;4.33;;
9972;SDS011;5027;53.560;10.062;2024-01-16T14:39:25;10.40;;;4.40;;
9972;SDS011;5027;53.560;10.062;2024-01-16T14:41:58;11.50;;;4.10;;
9972;SDS011;5027;53.560;10.062;2024-01-16T14:44:25;9.90;;;3.67;;
9972;SDS011;5027;53.560;10.062;2024-01-16T14:46:51;7.93;;;4.00;;
9972;SDS011;5027;53.560;10.062;2024-01-16T14:49:20;7.90;;;3.50;;
9972;SDS011;5027;53.560;10.062;2024-01-16T14:51:48;10.33;;;3.37;;
9972;SDS011;5027;53.560;10.062;2024-01-16T14:54:15;8.53;;;3.73;;
9972;SDS011;5027;53.560;10.062;2024-01-16T14:56:42;7.40;;;3.57;;
9972;SDS011;5027;53.560;10.062;2024-01-16T14:59:08;9.30;;;3.63;;
9972;SDS011;5027;53.560;10.062;2024-01-16T15:01:40;7.53;;;3.80;;
9972;SDS011;5027;53.560;10.062;2024-01-16T15:04:07;7.90;;;3.90;;
9972;SDS011;5027;53.560;10.062;2024-01-16T15:06:34;9.10;;;3.90;;
9972;SDS011;5027;53.560;10.062;2024-01-16T15:09:01;10.70;;;3.60;;
9972;SDS011;5027;53.560;10.062;2024-01-16T15:11:28;9.43;;;3.93;;
9972;SDS011;5027;53.560;10.062;2024-01-16T15:13:55;9.10;;;4.50;;